Time;durP1;ratioP1;P1;durP2;ratioP2;P2;SDS_P1;SDS_P2;PMS_P1;PMS_P2;Temp;Humidity;BMP_temperature;BMP_pressure;BME280_temperature;BME280_humidity;BME280_pressure;Samples;Min_cycle;Max_cycle;Signal;HPM_P1;HPM_P2
2024/01/10 00:00:02;;;;;;;17.45;10.00;;;;;;;;;;5010259;28;20112;-78
2024/01/10 00:02:28;;;;;;;16.95;9.73;;;;;;;;;;5029194;28;20490;-81
2024/01/10 00:04:54;;;;;;;18.55;9.85;;;;;;;;;;5022050;28;20047;-79
2024/01/10 00:07:20;;;;;;;14.20;8.93;;;;;;;;;;5027974;28;20061;-79
2024/01/10 00:09:47;;;;;;;15.48;8.43;;;;;;;;;;5017430;28;20044;-80
2024/01/10 00:12:13;;;;;;;12.50;8.82;;;;;;;;;;5010662;28;20465;-80
2024/01/10 00:14:39;;;;;;;16.52;9.98;;;;;;;;;;5014827;28;20036;-82
2024/01/10 00:17:05;;;;;;;18.17;9.70;;;;;;;;;;5025916;28;20041;-79
2024/01/10 00:19:31;;;;;;;15.70;9.52;;;;;;;;;;5033702;28;20030;-80
2024/01/10 00:21:57;;;;;;;16.20;9.75;;;;;;;;;;5015125;28;20043;-79
2024/01/10 00:24:23;;;;;;;14.10;9.23;;;;;;;;;;5012575;28;20506;-79
2024/01/10 00:26:49;;;;;;;14.25;10.10;;;;;;;;;;5021335;28;20045;-79
2024/01/10 00:29:15;;;;;;;15.80;9.95;;;;;;;;;;5028581;28;20057;-79
2024/01/10 00:31:41;;;;;;;18.58;9.50;;;;;;;;;;5018795;28;20059;-82
2024/01/10 00:34:07;;;;;;;15.25;9.77;;;;;;;;;;5030293;28;20060;-80
2024/01/10 00:36:33;;;;;;;18.25;10.63;;;;;;;;;;5015168;28;20032;-79
2024/01/10 00:39:00;;;;;;;18.25;10.98;;;;;;;;;;5028867;28;20041;-79
2024/01/10 00:41:26;;;;;;;18.20;9.57;;;;;;;;;;5011908;28;20032;-80
2024/01/10 00:43:52;;;;;;;13.07;8.50;;;;;;;;;;5023597;28;20112;-80
2024/01/10 00:46:18;;;;;;;14.13;8.88;;;;;;;;;;5020373;28;20030;-80
2024/01/10 00:48:44;;;;;;;15.63;9.90;;;;;;;;;;5029815;28;20037;-80
2024/01/10 00:51:10;;;;;;;18.90;10.10;;;;;;;;;;5017622;28;20041;-79
2024/01/10 00:53:38;;;;;;;19.55;10.48;;;;;;;;;;5009744;28;20144;-79
2024/01/10 00:56:04;;;;;;;17.83;10.20;;;;;;;;;;5032680;28;20033;-80
2024/01/10 00:58:30;;;;;;;17.08;9.35;;;;;;;;;;5017948;28;20066;-81
2024/01/10 01:00:56;;;;;;;18.13;10.27;;;;;;;;;;5027187;28;20028;-81
2024/01/10 01:03:22;;;;;;;16.63;10.70;;;;;;;;;;5010200;28;20113;-81
2024/01/10 01:05:48;;;;;;;18.38;10.38;;;;;;;;;;5009057;28;20077;-81
2024/01/10 01:08:14;;;;;;;14.27;9.20;;;;;;;;;;5018977;28;20049;-81
2024/01/10 01:10:40;;;;;;;19.67;11.30;;;;;;;;;;5019185;28;20033;-80
2024/01/10 01:13:07;;;;;;;20.02;11.20;;;;;;;;;;5017733;28;20510;-79
2024/01/10 01:15:33;;;;;;;20.15;11.52;;;;;;;;;;5015068;28;20219;-79
2024/01/10 01:17:59;;;;;;;17.95;11.00;;;;;;;;;;5013567;28;20026;-79
2024/01/10 01:20:25;;;;;;;19.95;10.88;;;;;;;;;;5019058;28;20046;-79
2024/01/10 01:22:51;;;;;;;20.52;11.48;;;;;;;;;;5009338;28;20052;-79
2024/01/10 01:25:17;;;;;;;17.45;11.43;;;;;;;;;;5009399;28;20337;-79
2024/01/10 01:27:43;;;;;;;19.23;11.05;;;;;;;;;;5013447;28;20132;-80
2024/01/10 01:30:11;;;;;;;19.27;12.07;;;;;;;;;;5009232;28;20479;-80
2024/01/10 01:32:37;;;;;;;18.33;11.63;;;;;;;;;;5012564;28;20392;-79
2024/01/10 01:35:03;;;;;;;17.63;11.32;;;;;;;;;;5008629;28;20038;-80
2024/01/10 01:37:29;;;;;;;20.45;12.85;;;;;;;;;;5008640;28;20533;-80
2024/01/10 01:39:55;;;;;;;20.42;11.82;;;;;;;;;;5012252;28;20447;-81
2024/01/10 01:42:21;;;;;;;20.92;11.50;;;;;;;;;;5023434;28;20083;-82
2024/01/10 01:44:47;;;;;;;16.50;11.32;;;;;;;;;;5010227;28;20034;-80
2024/01/10 01:47:14;;;;;;;19.08;10.93;;;;;;;;;;5025930;28;20030;-80
2024/01/10 01:49:42;;;;;;;20.65;11.85;;;;;;;;;;5012003;28;20088;-79
2024/01/10 01:52:08;;;;;;;18.63;11.50;;;;;;;;;;5022446;28;20030;-80
2024/01/10 01:54:35;;;;;;;23.17;13.02;;;;;;;;;;5018054;28;20030;-79
2024/01/10 01:57:01;;;;;;;19.55;12.10;;;;;;;;;;5028901;28;20064;-80
2024/01/10 01:59:27;;;;;;;19.30;11.23;;;;;;;;;;5019137;28;20041;-82
2024/01/10 02:01:55;;;;;;;17.98;11.52;;;;;;;;;;5010131;28;20462;-79
2024/01/10 02:04:21;;;;;;;17.42;11.68;;;;;;;;;;5025072;28;20029;-80
2024/01/10 02:06:47;;;;;;;18.80;10.77;;;;;;;;;;5020989;28;20049;-80
2024/01/10 02:09:13;;;;;;;22.05;12.02;;;;;;;;;;5010181;28;20479;-80
2024/01/10 02:11:40;;;;;;;24.90;12.98;;;;;;;;;;5027835;28;20029;-80
2024/01/10 02:14:06;;;;;;;18.95;12.98;;;;;;;;;;5025577;28;20021;-80
2024/01/10 02:16:32;;;;;;;19.48;12.55;;;;;;;;;;5010211;28;20026;-80
2024/01/10 02:18:58;;;;;;;24.30;13.48;;;;;;;;;;5009683;28;20068;-80
2024/01/10 02:21:24;;;;;;;22.45;13.13;;;;;;;;;;5014375;28;20033;-80
2024/01/10 02:23:50;;;;;;;20.90;13.65;;;;;;;;;;5029254;28;20112;-80
2024/01/10 02:26:16;;;;;;;23.67;13.60;;;;;;;;;;5010680;28;20030;-80
2024/01/10 02:28:42;;;;;;;25.40;14.07;;;;;;;;;;5004249;28;20030;-79
2024/01/10 02:31:09;;;;;;;22.33;12.63;;;;;;;;;;5021035;28;20053;-79
2024/01/10 02:33:35;;;;;;;22.70;12.95;;;;;;;;;;5017581;28;20376;-80
2024/01/10 02:36:01;;;;;;;20.40;12.13;;;;;;;;;;5028785;28;20033;-79
2024/01/10 02:38:27;;;;;;;22.67;13.18;;;;;;;;;;5013559;28;20049;-80
2024/01/10 02:40:55;;;;;;;20.73;12.57;;;;;;;;;;5015873;28;20049;-81
2024/01/10 02:43:21;;;;;;;22.42;13.52;;;;;;;;;;5024269;28;20025;-80
2024/01/10 02:45:47;;;;;;;19.50;11.70;;;;;;;;;;5025343;28;20107;-81
2024/01/10 02:48:13;;;;;;;23.10;12.60;;;;;;;;;;5020273;28;20045;-80
2024/01/10 02:50:39;;;;;;;18.13;11.13;;;;;;;;;;5022308;28;20538;-79
2024/01/10 02:53:05;;;;;;;22.52;12.55;;;;;;;;;;5029895;28;20030;-80
2024/01/10 02:55:31;;;;;;;21.10;12.07;;;;;;;;;;5028880;28;20036;-80
2024/01/10 02:57:57;;;;;;;20.40;12.68;;;;;;;;;;5012440;28;20479;-79
2024/01/10 03:00:23;;;;;;;20.27;12.68;;;;;;;;;;5018064;28;20256;-81
2024/01/10 03:02:49;;;;;;;20.50;12.52;;;;;;;;;;5028904;28;20056;-81
2024/01/10 03:05:15;;;;;;;21.45;13.02;;;;;;;;;;5033783;28;20029;-81
2024/01/10 03:07:41;;;;;;;22.58;11.85;;;;;;;;;;5021513;28;20080;-81
2024/01/10 03:10:08;;;;;;;23.08;13.23;;;;;;;;;;5029296;28;20075;-80
2024/01/10 03:12:36;;;;;;;18.63;12.25;;;;;;;;;;5019261;28;20026;-81
2024/01/10 03:15:02;;;;;;;20.23;12.77;;;;;;;;;;5047062;28;20493;-81
2024/01/10 03:17:28;;;;;;;19.73;12.02;;;;;;;;;;5024882;28;20029;-80
2024/01/10 03:19:54;;;;;;;20.77;13.07;;;;;;;;;;5032513;28;20398;-81
2024/01/10 03:22:21;;;;;;;21.52;13.48;;;;;;;;;;5016753;28;20350;-80
2024/01/10 03:24:47;;;;;;;20.50;12.95;;;;;;;;;;5031068;28;20044;-80
2024/01/10 03:27:13;;;;;;;19.92;12.00;;;;;;;;;;5002663;28;20033;-80
2024/01/10 03:29:39;;;;;;;21.98;13.70;;;;;;;;;;5019843;28;20042;-80
2024/01/10 03:32:06;;;;;;;19.13;12.52;;;;;;;;;;5019235;28;20041;-80
2024/01/10 03:34:32;;;;;;;17.42;11.23;;;;;;;;;;5023237;28;20033;-80
2024/01/10 03:36:58;;;;;;;21.65;12.68;;;;;;;;;;5025791;28;20128;-81
2024/01/10 03:39:24;;;;;;;24.25;11.57;;;;;;;;;;5016169;28;20092;-80
2024/01/10 03:41:50;;;;;;;17.65;11.00;;;;;;;;;;5011435;28;20396;-80
2024/01/10 03:44:16;;;;;;;18.48;11.35;;;;;;;;;;5013566;28;20439;-81
2024/01/10 03:46:42;;;;;;;17.40;10.45;;;;;;;;;;5021588;28;20536;-80
2024/01/10 03:49:08;;;;;;;20.38;11.40;;;;;;;;;;5016016;28;20474;-80
2024/01/10 03:51:34;;;;;;;17.02;11.48;;;;;;;;;;5009952;28;20029;-80
2024/01/10 03:54:00;;;;;;;18.02;11.30;;;;;;;;;;5022624;28;20112;-80
2024/01/10 03:56:27;;;;;;;21.25;11.50;;;;;;;;;;5030736;28;20022;-80
2024/01/10 03:58:53;;;;;;;18.77;11.48;;;;;;;;;;5021397;28;20045;-80
2024/01/10 04:01:22;;;;;;;18.83;10.90;;;;;;;;;;5012959;28;20032;-79
2024/01/10 04:03:48;;;;;;;17.85;10.25;;;;;;;;;;5011368;28;20041;-80
2024/01/10 04:06:15;;;;;;;17.67;11.77;;;;;;;;;;5027514;28;20044;-80
2024/01/10 04:08:41;;;;;;;22.00;11.68;;;;;;;;;;5024919;28;20056;-80
2024/01/10 04:11:08;;;;;;;19.27;10.38;;;;;;;;;;5026695;28;20034;-80
2024/01/10 04:13:34;;;;;;;19.05;11.40;;;;;;;;;;5022187;28;20022;-80
2024/01/10 04:16:01;;;;;;;23.00;11.18;;;;;;;;;;5010969;28;20056;-80
2024/01/10 04:18:27;;;;;;;18.40;10.48;;;;;;;;;;5017959;28;20037;-82
2024/01/10 04:20:53;;;;;;;17.02;11.70;;;;;;;;;;5028587;28;20378;-81
2024/01/10 04:23:19;;;;;;;16.65;10.77;;;;;;;;;;5024353;28;20040;-80
2024/01/10 04:25:45;;;;;;;19.27;11.32;;;;;;;;;;5015893;28;20030;-81
2024/01/10 04:28:11;;;;;;;21.25;12.20;;;;;;;;;;5020947;28;20026;-80
2024/01/10 04:30:37;;;;;;;20.70;11.30;;;;;;;;;;5027501;28;20029;-80
2024/01/10 04:33:03;;;;;;;19.13;11.60;;;;;;;;;;5026429;28;20029;-80
2024/01/10 04:35:29;;;;;;;18.83;12.00;;;;;;;;;;5019055;28;20526;-81
2024/01/10 04:37:55;;;;;;;20.05;11.82;;;;;;;;;;5021134;28;20084;-81
2024/01/10 04:40:21;;;;;;;20.10;12.50;;;;;;;;;;5009295;28;20026;-81
2024/01/10 04:42:47;;;;;;;20.33;11.93;;;;;;;;;;5025626;28;20026;-81
2024/01/10 04:45:13;;;;;;;23.33;13.35;;;;;;;;;;5017861;28;20117;-81
2024/01/10 04:47:39;;;;;;;21.00;12.45;;;;;;;;;;5026928;28;20810;-81
2024/01/10 04:50:05;;;;;;;21.88;12.45;;;;;;;;;;5015425;28;20037;-82
2024/01/10 04:52:31;;;;;;;19.05;11.77;;;;;;;;;;5010547;28;20164;-81
2024/01/10 04:54:57;;;;;;;17.00;11.38;;;;;;;;;;5010969;28;20033;-82
2024/01/10 04:57:23;;;;;;;25.33;13.88;;;;;;;;;;5010532;28;20049;-81
2024/01/10 04:59:49;;;;;;;21.70;12.18;;;;;;;;;;5013598;28;20052;-81
2024/01/10 05:02:15;;;;;;;18.50;12.07;;;;;;;;;;5021587;28;20080;-81
2024/01/10 05:04:41;;;;;;;21.15;11.73;;;;;;;;;;5027941;28;20041;-81
2024/01/10 05:07:08;;;;;;;20.27;11.65;;;;;;;;;;5017869;28;20048;-81
2024/01/10 05:09:34;;;;;;;20.05;12.23;;;;;;;;;;5027023;28;20401;-81
2024/01/10 05:12:00;;;;;;;19.08;12.95;;;;;;;;;;5012058;28;20042;-81
2024/01/10 05:14:26;;;;;;;18.27;11.57;;;;;;;;;;5014752;28;20033;-80
2024/01/10 05:16:53;;;;;;;21.63;11.68;;;;;;;;;;5014345;28;20037;-80
2024/01/10 05:19:19;;;;;;;21.08;11.95;;;;;;;;;;5010088;28;20137;-82
2024/01/10 05:21:45;;;;;;;21.67;11.70;;;;;;;;;;5016368;28;20578;-81
2024/01/10 05:24:12;;;;;;;18.33;11.05;;;;;;;;;;5019365;28;20117;-79
2024/01/10 05:26:38;;;;;;;19.75;11.02;;;;;;;;;;5009101;28;20033;-81
2024/01/10 05:29:04;;;;;;;19.40;11.07;;;;;;;;;;5026804;28;20121;-80
2024/01/10 05:31:30;;;;;;;17.05;11.23;;;;;;;;;;5017184;28;20034;-80
2024/01/10 05:33:56;;;;;;;21.20;11.35;;;;;;;;;;5025376;28;20356;-80
2024/01/10 05:36:23;;;;;;;19.52;11.27;;;;;;;;;;5020466;28;20395;-80
2024/01/10 05:38:49;;;;;;;18.80;11.18;;;;;;;;;;5015640;28;20053;-80
2024/01/10 05:41:15;;;;;;;16.52;10.93;;;;;;;;;;5007272;28;20037;-80
2024/01/10 05:43:43;;;;;;;17.65;10.23;;;;;;;;;;5014093;28;20030;-79
2024/01/10 05:46:09;;;;;;;18.33;11.05;;;;;;;;;;5021228;28;20038;-80
2024/01/10 05:48:36;;;;;;;17.45;10.95;;;;;;;;;;5011376;28;20034;-80
2024/01/10 05:51:03;;;;;;;19.95;11.15;;;;;;;;;;5014124;28;20029;-80
2024/01/10 05:53:29;;;;;;;19.45;10.75;;;;;;;;;;5018669;28;20032;-80
2024/01/10 05:55:55;;;;;;;17.13;10.10;;;;;;;;;;5028224;28;20037;-80
2024/01/10 05:58:21;;;;;;;18.27;11.23;;;;;;;;;;5019025;28;20494;-81
2024/01/10 06:00:47;;;;;;;18.38;11.57;;;;;;;;;;5023669;28;20038;-83
2024/01/10 06:03:13;;;;;;;17.40;9.90;;;;;;;;;;5012633;28;20100;-80
2024/01/10 06:05:39;;;;;;;15.73;10.48;;;;;;;;;;5018145;28;20029;-80
2024/01/10 06:08:05;;;;;;;19.20;10.80;;;;;;;;;;5016362;28;20046;-81
2024/01/10 06:10:31;;;;;;;17.17;10.25;;;;;;;;;;5017598;28;20288;-81
2024/01/10 06:12:58;;;;;;;16.92;10.18;;;;;;;;;;5017311;28;20026;-81
2024/01/10 06:15:24;;;;;;;15.32;9.95;;;;;;;;;;5025414;28;20479;-80
2024/01/10 06:17:50;;;;;;;17.70;10.25;;;;;;;;;;5017460;28;20030;-80
2024/01/10 06:20:18;;;;;;;77.25;30.20;;;;;;;;;;4991984;28;20399;-81
2024/01/10 06:22:46;;;;;;;28.60;15.07;;;;;;;;;;5022218;28;20448;-80
2024/01/10 06:25:12;;;;;;;22.42;11.93;;;;;;;;;;5019639;28;20026;-81
2024/01/10 06:27:39;;;;;;;19.13;11.45;;;;;;;;;;5026733;28;20067;-81
2024/01/10 06:30:07;;;;;;;18.70;10.00;;;;;;;;;;5026363;28;20041;-77
2024/01/10 06:32:33;;;;;;;20.23;10.30;;;;;;;;;;5020932;28;20092;-79
2024/01/10 06:35:01;;;;;;;16.60;10.40;;;;;;;;;;5015431;28;20037;-83
2024/01/10 06:37:27;;;;;;;14.77;10.32;;;;;;;;;;5030525;28;20080;-79
2024/01/10 06:39:53;;;;;;;18.70;11.07;;;;;;;;;;5018258;28;20030;-82
2024/01/10 06:42:20;;;;;;;17.35;10.60;;;;;;;;;;5012897;28;20148;-78
2024/01/10 06:44:46;;;;;;;18.40;10.20;;;;;;;;;;5019721;28;20051;-78
2024/01/10 06:47:12;;;;;;;17.17;9.98;;;;;;;;;;5032350;28;20065;-78
2024/01/10 06:49:38;;;;;;;19.17;10.88;;;;;;;;;;5030660;28;20041;-79
2024/01/10 06:52:06;;;;;;;19.08;10.38;;;;;;;;;;5044106;28;20034;-78
2024/01/10 06:54:33;;;;;;;15.75;9.73;;;;;;;;;;5030005;28;20462;-77
2024/01/10 06:56:59;;;;;;;27.67;12.90;;;;;;;;;;5014499;28;20108;-77
2024/01/10 06:59:25;;;;;;;24.38;12.38;;;;;;;;;;5017173;28;20179;-83
2024/01/10 07:01:52;;;;;;;22.35;11.95;;;;;;;;;;5028641;28;20095;-79
2024/01/10 07:04:22;;;;;;;17.20;10.50;;;;;;;;;;5016189;28;20033;-80
2024/01/10 07:06:48;;;;;;;20.48;10.60;;;;;;;;;;5023393;28;20132;-80
2024/01/10 07:09:19;;;;;;;19.75;9.93;;;;;;;;;;5025320;28;20034;-78
2024/01/10 07:11:45;;;;;;;16.88;10.27;;;;;;;;;;5020524;28;20030;-81
2024/01/10 07:14:11;;;;;;;18.98;10.07;;;;;;;;;;5015322;28;20041;-78
2024/01/10 07:16:38;;;;;;;16.17;10.30;;;;;;;;;;5034510;28;20439;-78
2024/01/10 07:19:04;;;;;;;16.55;10.07;;;;;;;;;;5011382;28;20082;-78
2024/01/10 07:21:30;;;;;;;16.42;9.95;;;;;;;;;;5011314;28;20030;-78
2024/01/10 07:23:56;;;;;;;16.80;9.02;;;;;;;;;;5011204;28;20030;-78
2024/01/10 07:26:22;;;;;;;20.42;10.15;;;;;;;;;;5031422;28;20033;-80
2024/01/10 07:28:48;;;;;;;18.70;11.38;;;;;;;;;;5019139;28;20137;-78
2024/01/10 07:31:15;;;;;;;16.35;10.65;;;;;;;;;;5020954;28;20041;-81
2024/01/10 07:33:41;;;;;;;18.33;10.63;;;;;;;;;;5024208;28;20022;-81
2024/01/10 07:36:07;;;;;;;20.88;11.95;;;;;;;;;;5020436;28;20075;-77
2024/01/10 07:38:33;;;;;;;20.88;11.65;;;;;;;;;;5010237;28;20033;-77
2024/01/10 07:40:59;;;;;;;20.42;10.55;;;;;;;;;;5011382;28;20042;-77
2024/01/10 07:43:27;;;;;;;17.13;10.45;;;;;;;;;;5034361;28;20533;-77
2024/01/10 07:45:53;;;;;;;21.45;11.85;;;;;;;;;;5035569;28;20053;-78
2024/01/10 07:48:20;;;;;;;17.27;10.40;;;;;;;;;;5021659;28;20034;-80
2024/01/10 07:50:46;;;;;;;17.67;11.32;;;;;;;;;;5023766;28;20037;-78
2024/01/10 07:53:13;;;;;;;17.90;10.18;;;;;;;;;;5027138;28;20114;-78
2024/01/10 07:55:39;;;;;;;18.85;11.38;;;;;;;;;;5012302;28;20022;-77
2024/01/10 07:58:05;;;;;;;16.15;10.25;;;;;;;;;;5013777;28;20037;-78
2024/01/10 08:00:31;;;;;;;16.42;10.38;;;;;;;;;;5014849;28;20029;-78
2024/01/10 08:02:58;;;;;;;17.92;10.80;;;;;;;;;;5019273;28;20045;-78
2024/01/10 08:05:24;;;;;;;20.42;12.25;;;;;;;;;;5016266;28;20554;-80
2024/01/10 08:07:50;;;;;;;16.63;10.65;;;;;;;;;;5021377;28;20061;-78
2024/01/10 08:10:16;;;;;;;18.88;11.85;;;;;;;;;;5025370;28;20064;-79
2024/01/10 08:12:42;;;;;;;16.83;10.23;;;;;;;;;;5028274;28;20021;-78
2024/01/10 08:15:08;;;;;;;17.15;11.15;;;;;;;;;;5017538;28;20045;-80
2024/01/10 08:17:37;;;;;;;22.63;11.68;;;;;;;;;;5019463;28;20387;-77
2024/01/10 08:20:03;;;;;;;19.13;10.90;;;;;;;;;;5012000;28;21223;-78
2024/01/10 08:22:30;;;;;;;22.92;12.15;;;;;;;;;;5025034;28;20028;-76
2024/01/10 08:24:56;;;;;;;16.17;10.18;;;;;;;;;;5030131;28;20021;-77
2024/01/10 08:27:22;;;;;;;20.45;11.57;;;;;;;;;;5022185;28;20371;-77
2024/01/10 08:29:48;;;;;;;19.60;10.82;;;;;;;;;;5018357;28;20428;-79
2024/01/10 08:32:15;;;;;;;26.05;12.60;;;;;;;;;;5016605;28;20060;-80
2024/01/10 08:34:41;;;;;;;21.02;11.88;;;;;;;;;;5013681;28;20383;-77
2024/01/10 08:37:07;;;;;;;18.90;11.43;;;;;;;;;;5041654;28;20392;-77
2024/01/10 08:39:33;;;;;;;19.83;11.10;;;;;;;;;;5006876;28;20392;-77
2024/01/10 08:41:59;;;;;;;19.08;11.90;;;;;;;;;;5014096;28;20482;-77
2024/01/10 08:44:25;;;;;;;20.48;11.13;;;;;;;;;;4998058;28;20137;-78
2024/01/10 08:46:52;;;;;;;18.58;11.90;;;;;;;;;;5027229;28;20501;-77
2024/01/10 08:49:19;;;;;;;18.02;11.00;;;;;;;;;;5024680;28;20030;-78
2024/01/10 08:51:46;;;;;;;18.98;11.05;;;;;;;;;;5013561;28;20531;-76
2024/01/10 08:54:19;;;;;;;16.98;10.43;;;;;;;;;;5025551;28;20076;-78
2024/01/10 08:56:45;;;;;;;18.80;10.52;;;;;;;;;;5006845;28;20407;-78
2024/01/10 08:59:12;;;;;;;18.17;10.85;;;;;;;;;;5010416;28;20483;-76
2024/01/10 09:01:41;;;;;;;16.52;10.27;;;;;;;;;;5018081;28;20042;-76
2024/01/10 09:04:07;;;;;;;20.30;12.00;;;;;;;;;;5010263;28;20049;-75
2024/01/10 09:06:35;;;;;;;22.10;11.65;;;;;;;;;;5009762;28;20053;-75
2024/01/10 09:09:02;;;;;;;20.30;10.48;;;;;;;;;;5026780;28;20383;-73
2024/01/10 09:11:28;;;;;;;19.35;10.57;;;;;;;;;;5032766;28;20135;-76
2024/01/10 09:13:54;;;;;;;17.35;10.07;;;;;;;;;;5014128;28;20029;-76
2024/01/10 09:16:20;;;;;;;20.27;11.02;;;;;;;;;;5019572;28;20034;-76
2024/01/10 09:18:46;;;;;;;15.18;9.27;;;;;;;;;;5028119;28;20365;-76
2024/01/10 09:21:12;;;;;;;18.67;9.55;;;;;;;;;;5021820;28;20040;-76
2024/01/10 09:23:38;;;;;;;20.35;10.23;;;;;;;;;;5038846;28;20060;-76
2024/01/10 09:26:04;;;;;;;19.83;10.23;;;;;;;;;;5017442;28;20039;-80
2024/01/10 09:28:30;;;;;;;20.50;10.27;;;;;;;;;;5022854;28;20514;-76
2024/01/10 09:30:56;;;;;;;21.15;10.93;;;;;;;;;;5023699;28;20479;-76
2024/01/10 09:33:22;;;;;;;18.85;9.82;;;;;;;;;;5009383;28;20476;-77
2024/01/10 09:35:49;;;;;;;19.63;10.10;;;;;;;;;;5020433;28;20018;-75
2024/01/10 09:38:16;;;;;;;19.05;10.13;;;;;;;;;;5023631;28;20029;-75
2024/01/10 09:40:43;;;;;;;17.83;10.10;;;;;;;;;;5024020;28;20037;-76
2024/01/10 09:43:09;;;;;;;19.60;10.38;;;;;;;;;;5010490;28;20502;-74
2024/01/10 09:45:36;;;;;;;23.40;11.50;;;;;;;;;;5024071;28;20037;-74
2024/01/10 09:48:03;;;;;;;18.75;10.10;;;;;;;;;;5005637;28;20029;-74
2024/01/10 09:50:29;;;;;;;17.42;9.75;;;;;;;;;;5027876;28;20065;-74
2024/01/10 09:53:01;;;;;;;18.73;10.05;;;;;;;;;;5028276;28;20538;-74
2024/01/10 09:55:28;;;;;;;19.38;9.82;;;;;;;;;;5025086;28;20033;-75
2024/01/10 09:57:54;;;;;;;20.52;10.80;;;;;;;;;;5018587;28;20030;-75
2024/01/10 10:00:21;;;;;;;23.10;10.02;;;;;;;;;;5022728;28;20042;-74
2024/01/10 10:02:50;;;;;;;21.85;11.05;;;;;;;;;;5010753;28;20037;-76
2024/01/10 10:05:17;;;;;;;19.92;10.25;;;;;;;;;;5030380;28;20498;-77
2024/01/10 10:07:44;;;;;;;18.67;9.98;;;;;;;;;;5026182;28;20503;-77
2024/01/10 10:10:12;;;;;;;17.83;9.68;;;;;;;;;;5030175;28;20421;-77
2024/01/10 10:12:45;;;;;;;20.38;9.40;;;;;;;;;;5012316;28;20028;-77
2024/01/10 10:15:12;;;;;;;19.38;9.40;;;;;;;;;;5019217;28;20080;-78
2024/01/10 10:17:44;;;;;;;20.38;11.32;;;;;;;;;;5015279;28;20029;-75
2024/01/10 10:20:10;;;;;;;;;;;;;;;;;;5015764;28;20514;-78
2024/01/10 10:22:37;;;;;;;15.15;8.60;;;;;;;;;;5014930;28;19960;-75
2024/01/10 10:25:04;;;;;;;19.33;10.00;;;;;;;;;;5032605;28;20049;-74
2024/01/10 10:27:30;;;;;;;15.35;8.52;;;;;;;;;;5024023;28;20803;-77
2024/01/10 10:29:56;;;;;;;18.30;9.65;;;;;;;;;;5020349;28;20115;-75
2024/01/10 10:32:22;;;;;;;23.63;9.52;;;;;;;;;;5028519;28;20033;-76
2024/01/10 10:34:48;;;;;;;17.55;8.90;;;;;;;;;;5020342;28;20029;-74
2024/01/10 10:37:15;;;;;;;16.13;9.10;;;;;;;;;;5022113;28;20025;-74
2024/01/10 10:39:41;;;;;;;17.27;8.63;;;;;;;;;;5020570;28;20506;-76
2024/01/10 10:42:07;;;;;;;13.93;7.97;;;;;;;;;;5014843;28;20041;-77
2024/01/10 10:44:36;;;;;;;17.75;9.27;;;;;;;;;;5017746;28;20087;-77
2024/01/10 10:47:05;;;;;;;13.70;7.82;;;;;;;;;;5027336;28;20037;-79
2024/01/10 10:49:32;;;;;;;15.30;8.75;;;;;;;;;;5019918;28;20029;-76
2024/01/10 10:51:58;;;;;;;20.15;10.00;;;;;;;;;;5025998;28;20089;-80
2024/01/10 10:54:26;;;;;;;21.50;10.45;;;;;;;;;;4995037;28;20061;-78
2024/01/10 10:56:52;;;;;;;16.00;8.77;;;;;;;;;;5014190;28;20052;-81
2024/01/10 10:59:20;;;;;;;16.15;8.77;;;;;;;;;;5018157;28;20038;-79
2024/01/10 11:01:47;;;;;;;15.90;8.63;;;;;;;;;;5031732;28;20565;-80
2024/01/10 11:04:16;;;;;;;16.00;8.80;;;;;;;;;;5018427;28;20417;-80
2024/01/10 11:06:42;;;;;;;17.02;9.20;;;;;;;;;;5015848;28;20057;-80
2024/01/10 11:09:12;;;;;;;15.93;9.05;;;;;;;;;;5028764;28;20080;-81
2024/01/10 11:11:39;;;;;;;14.10;8.00;;;;;;;;;;5021704;28;20040;-81
2024/01/10 11:14:05;;;;;;;16.15;8.60;;;;;;;;;;5022023;28;20041;-80
2024/01/10 11:16:31;;;;;;;14.63;7.88;;;;;;;;;;5023791;28;20029;-79
2024/01/10 11:19:10;;;;;;;15.00;7.63;;;;;;;;;;5020256;28;20029;-82
2024/01/10 11:21:55;;;;;;;15.75;9.40;;;;;;;;;;5011752;28;20029;-78
2024/01/10 11:24:21;;;;;;;18.80;9.32;;;;;;;;;;5012324;28;20079;-78
2024/01/10 11:26:47;;;;;;;14.57;8.10;;;;;;;;;;5012420;28;20044;-79
2024/01/10 11:29:15;;;;;;;17.60;8.60;;;;;;;;;;5011380;28;20030;-80
2024/01/10 11:31:41;;;;;;;16.45;8.70;;;;;;;;;;5018712;28;20041;-80
2024/01/10 11:34:09;;;;;;;12.82;7.57;;;;;;;;;;5011584;28;20025;-79
2024/01/10 11:36:35;;;;;;;13.35;7.15;;;;;;;;;;5018165;28;20468;-80
2024/01/10 11:39:06;;;;;;;16.33;8.70;;;;;;;;;;5012012;28;20570;-80
2024/01/10 11:41:35;;;;;;;15.35;8.05;;;;;;;;;;5023989;28;20052;-78
2024/01/10 11:44:22;;;;;;;14.27;7.40;;;;;;;;;;5020677;28;20026;-78
2024/01/10 11:46:48;;;;;;;13.68;6.97;;;;;;;;;;5032091;28;20084;-81
2024/01/10 11:49:17;;;;;;;15.18;7.13;;;;;;;;;;5014903;28;20064;-80
2024/01/10 11:51:43;;;;;;;14.13;7.85;;;;;;;;;;5025471;28;20056;-84
2024/01/10 11:54:09;;;;;;;14.30;7.25;;;;;;;;;;5020236;28;20061;-79
2024/01/10 11:56:42;;;;;;;27.10;14.35;;;;;;;;;;5011734;28;20450;-81
2024/01/10 11:59:08;;;;;;;34.33;15.88;;;;;;;;;;5027889;28;20042;-79
2024/01/10 12:01:36;;;;;;;16.30;8.23;;;;;;;;;;5000697;28;20034;-81
2024/01/10 12:04:03;;;;;;;15.82;7.80;;;;;;;;;;5029142;28;20029;-79
2024/01/10 12:06:30;;;;;;;15.45;7.63;;;;;;;;;;5011576;28;20046;-81
2024/01/10 12:08:56;;;;;;;15.70;8.05;;;;;;;;;;5028294;28;20033;-82
2024/01/10 12:11:22;;;;;;;16.27;8.10;;;;;;;;;;5025394;28;20033;-82
2024/01/10 12:13:48;;;;;;;15.70;7.20;;;;;;;;;;5022035;28;20565;-83
2024/01/10 12:16:15;;;;;;;14.02;7.13;;;;;;;;;;5009526;28;20110;-81
2024/01/10 12:18:42;;;;;;;12.73;7.00;;;;;;;;;;5019768;28;20061;-82
2024/01/10 12:21:12;;;;;;;14.65;7.38;;;;;;;;;;5018401;28;20096;-82
2024/01/10 12:23:38;;;;;;;13.63;7.57;;;;;;;;;;5016587;28;20026;-82
2024/01/10 12:26:09;;;;;;;13.77;6.85;;;;;;;;;;5027522;28;20021;-83
2024/01/10 12:28:39;;;;;;;13.25;7.20;;;;;;;;;;5019351;28;20100;-81
2024/01/10 12:31:07;;;;;;;18.00;7.35;;;;;;;;;;5029555;28;20034;-83
2024/01/10 12:33:33;;;;;;;14.98;6.97;;;;;;;;;;5022390;28;20112;-83
2024/01/10 12:36:11;;;;;;;12.85;6.70;;;;;;;;;;5022451;28;20125;-82
2024/01/10 12:38:40;;;;;;;12.30;6.35;;;;;;;;;;5018169;28;20059;-83
2024/01/10 12:41:09;;;;;;;14.13;7.90;;;;;;;;;;5018622;28;20041;-81
2024/01/10 12:43:35;;;;;;;15.55;8.02;;;;;;;;;;5015170;28;20034;-81
2024/01/10 12:46:05;;;;;;;13.45;6.93;;;;;;;;;;5039892;28;20029;-81
2024/01/10 12:48:31;;;;;;;15.90;7.43;;;;;;;;;;5019594;28;20041;-83
2024/01/10 12:51:00;;;;;;;11.88;6.80;;;;;;;;;;5020489;28;20404;-82
2024/01/10 12:53:26;;;;;;;14.27;7.13;;;;;;;;;;5013883;28;20040;-81
2024/01/10 12:55:53;;;;;;;17.77;8.02;;;;;;;;;;5027153;28;20029;-80
2024/01/10 12:58:19;;;;;;;25.00;12.05;;;;;;;;;;5041831;28;20382;-79
2024/01/10 13:00:45;;;;;;;16.50;7.53;;;;;;;;;;5025449;28;20037;-81
2024/01/10 13:03:12;;;;;;;14.55;7.53;;;;;;;;;;5009448;28;20112;-79
2024/01/10 13:05:38;;;;;;;16.45;7.68;;;;;;;;;;5028392;28;20029;-81
2024/01/10 13:08:05;;;;;;;12.18;7.50;;;;;;;;;;5017486;28;20152;-80
2024/01/10 13:10:31;;;;;;;13.90;7.15;;;;;;;;;;5023950;28;20034;-81
2024/01/10 13:12:58;;;;;;;11.77;6.95;;;;;;;;;;5011180;28;20040;-81
2024/01/10 13:15:24;;;;;;;13.40;6.78;;;;;;;;;;5027145;28;20514;-81
2024/01/10 13:17:50;;;;;;;13.27;7.60;;;;;;;;;;5023582;28;20680;-81
2024/01/10 13:20:16;;;;;;;13.65;7.28;;;;;;;;;;5021324;28;20494;-81
2024/01/10 13:22:42;;;;;;;14.02;8.13;;;;;;;;;;5024399;28;20408;-82
2024/01/10 13:25:08;;;;;;;12.90;6.97;;;;;;;;;;5012533;28;20534;-80
2024/01/10 13:27:34;;;;;;;16.77;8.05;;;;;;;;;;5028621;28;20052;-81
2024/01/10 13:30:00;;;;;;;14.90;8.02;;;;;;;;;;5014489;28;20034;-80
2024/01/10 13:32:26;;;;;;;11.25;6.80;;;;;;;;;;5017294;28;20029;-77
2024/01/10 13:34:52;;;;;;;16.27;8.20;;;;;;;;;;5019878;28;20044;-77
2024/01/10 13:37:18;;;;;;;15.32;7.47;;;;;;;;;;5022568;28;20471;-77
2024/01/10 13:39:44;;;;;;;13.40;7.72;;;;;;;;;;5010858;28;20449;-79
2024/01/10 13:42:10;;;;;;;12.98;7.28;;;;;;;;;;5024648;28;20037;-79
2024/01/10 13:44:36;;;;;;;11.95;6.80;;;;;;;;;;5018587;28;20037;-79
2024/01/10 13:47:03;;;;;;;15.88;8.02;;;;;;;;;;5015019;28;20037;-78
2024/01/10 13:49:29;;;;;;;14.43;7.93;;;;;;;;;;5040089;28;20033;-78
2024/01/10 13:51:56;;;;;;;13.45;7.63;;;;;;;;;;5008783;28;20438;-82
2024/01/10 13:54:22;;;;;;;16.67;8.32;;;;;;;;;;5008719;28;20030;-81
2024/01/10 13:56:48;;;;;;;13.93;7.70;;;;;;;;;;5025877;28;20032;-79
2024/01/10 13:59:14;;;;;;;15.98;8.10;;;;;;;;;;5028309;28;20495;-77
2024/01/10 14:01:40;;;;;;;15.23;7.50;;;;;;;;;;5020739;28;20056;-79
2024/01/10 14:04:06;;;;;;;14.75;8.32;;;;;;;;;;5021026;28;20111;-79
2024/01/10 14:06:32;;;;;;;22.98;11.77;;;;;;;;;;5018780;28;20533;-78
2024/01/10 14:08:58;;;;;;;12.80;6.97;;;;;;;;;;5008707;28;20037;-77
2024/01/10 14:11:26;;;;;;;13.23;7.35;;;;;;;;;;5012746;28;20096;-79
2024/01/10 14:13:54;;;;;;;14.57;8.05;;;;;;;;;;5010062;28;20108;-78
2024/01/10 14:16:20;;;;;;;12.63;7.68;;;;;;;;;;5015067;28;20029;-85